Time;durP1;ratioP1;P1;durP2;ratioP2;P2;SDS_P1;SDS_P2;PMS_P1;PMS_P2;Temp;Humidity;BMP_temperature;BMP_pressure;BME280_temperature;BME280_humidity;BME280_pressure;Samples;Min_cycle;Max_cycle;Signal;HPM_P1;HPM_P2
2022/06/06 00:00:42;;;;;;;4.80;1.00;;;21.00;99.90;;;;;;1962425;72;22231;-85
2022/06/06 00:03:52;;;;;;;2.25;1.30;;;21.00;99.90;;;;;;1941429;73;21085;-85
2022/06/06 00:07:02;;;;;;;2.33;1.00;;;20.90;99.90;;;;;;1917612;75;21071;-84
2022/06/06 00:12:31;;;;;;;2.50;0.95;;;20.90;99.90;;;;;;1938672;72;22133;-85
2022/06/06 00:15:41;;;;;;;1.05;0.90;;;20.90;99.90;;;;;;1895441;75;21587;-85
2022/06/06 00:18:51;;;;;;;1.40;0.88;;;20.70;99.90;;;;;;1872759;75;21102;-86
2022/06/06 00:21:53;;;;;;;1.27;0.98;;;20.70;99.90;;;;;;1894267;75;21185;-86
2022/06/06 00:25:07;;;;;;;2.85;0.98;;;20.60;99.90;;;;;;1866198;75;21211;-87
2022/06/06 00:30:41;;;;;;;1.32;1.00;;;20.50;99.90;;;;;;1933882;72;22118;-87
2022/06/06 00:37:23;;;;;;;1.60;1.10;;;20.40;99.90;;;;;;1850303;76;21549;-88
2022/06/06 00:40:16;;;;;;;2.33;1.00;;;20.30;99.90;;;;;;1904780;73;21099;-87
2022/06/06 00:43:26;;;;;;;1.17;0.93;;;20.40;99.90;;;;;;1890162;75;21080;-87
2022/06/06 00:46:18;;;;;;;2.45;1.27;;;20.40;99.90;;;;;;1903137;75;21072;-88
2022/06/06 00:49:13;;;;;;;4.78;1.02;;;20.40;99.90;;;;;;1914282;75;21162;-87
2022/06/06 00:52:07;;;;;;;1.90;1.12;;;20.50;99.90;;;;;;1902229;75;21052;-87
2022/06/06 00:57:42;;;;;;;1.67;1.02;;;20.40;99.90;;;;;;1953462;72;22184;-88
2022/06/06 01:03:33;;;;;;;1.95;1.00;;;20.40;99.90;;;;;;1931603;72;22313;-87
2022/06/06 01:06:45;;;;;;;2.77;1.07;;;20.30;99.90;;;;;;1894335;74;21545;-88
2022/06/06 01:09:55;;;;;;;1.82;1.30;;;20.10;99.90;;;;;;1894165;75;21054;-88
2022/06/06 01:12:50;;;;;;;3.60;1.15;;;19.90;99.90;;;;;;1888177;75;21157;-88
2022/06/06 01:16:11;;;;;;;1.60;1.20;;;19.90;99.90;;;;;;1890011;75;21039;-88
2022/06/06 01:19:47;;;;;;;2.60;1.12;;;19.70;99.90;;;;;;1882711;75;21089;-88
2022/06/06 01:23:21;;;;;;;1.75;1.15;;;19.80;99.90;;;;;;1884555;75;21121;-89
2022/06/06 01:29:34;;;;;;;2.02;0.80;;;20.00;99.90;;;;;;1946883;72;22180;-89
2022/06/06 01:32:45;;;;;;;2.70;0.95;;;20.00;99.90;;;;;;1909237;74;21086;-88
2022/06/06 01:35:57;;;;;;;3.15;1.10;;;20.00;99.90;;;;;;1906418;74;21043;-88
2022/06/06 01:38:49;;;;;;;2.08;1.05;;;20.00;99.90;;;;;;1915231;74;21059;-88
2022/06/06 01:44:42;;;;;;;2.12;1.00;;;20.00;99.90;;;;;;1926859;72;22166;-87
2022/06/06 01:47:56;;;;;;;2.05;1.00;;;20.00;99.90;;;;;;1915911;75;21139;-88
2022/06/06 01:51:11;;;;;;;3.15;1.17;;;20.00;99.90;;;;;;1914979;75;21113;-87
2022/06/06 01:54:03;;;;;;;1.80;1.10;;;19.90;99.90;;;;;;1917634;75;21206;-88
2022/06/06 01:57:16;;;;;;;2.70;1.27;;;19.90;99.90;;;;;;1894688;75;21547;-87
2022/06/06 02:00:10;;;;;;;2.85;1.15;;;19.90;99.90;;;;;;1890568;75;21631;-87
2022/06/06 02:03:02;;;;;;;4.15;1.20;;;19.80;99.90;;;;;;1894176;75;21205;-87
2022/06/06 02:05:54;;;;;;;2.17;1.02;;;19.80;99.90;;;;;;1902008;75;21581;-88
2022/06/06 02:08:47;;;;;;;6.85;1.55;;;19.80;99.90;;;;;;1926391;73;21070;-87
2022/06/06 02:11:39;;;;;;;3.50;1.20;;;19.70;99.90;;;;;;1914799;75;21068;-87
2022/06/06 02:17:22;;;;;;;4.12;1.00;;;19.70;99.90;;;;;;1955068;72;22542;-87
2022/06/06 02:23:12;;;;;;;3.35;1.02;;;19.70;99.90;;;;;;1937761;72;22232;-87
2022/06/06 02:26:22;;;;;;;1.75;1.30;;;19.60;99.90;;;;;;1893232;75;21103;-87
2022/06/06 02:29:32;;;;;;;3.27;1.25;;;19.60;99.90;;;;;;1893206;75;21625;-87
2022/06/06 02:32:24;;;;;;;2.37;1.15;;;19.60;99.90;;;;;;1881186;75;21125;-88
2022/06/06 02:35:36;;;;;;;4.30;1.30;;;19.60;99.90;;;;;;1890485;75;21130;-88
2022/06/06 02:38:29;;;;;;;3.12;1.17;;;19.60;99.90;;;;;;1892106;75;21128;-89
2022/06/06 02:41:22;;;;;;;1.00;0.90;;;19.50;99.90;;;;;;1892523;75;21145;-87
2022/06/06 02:44:13;;;;;;;1.70;1.07;;;19.50;99.90;;;;;;1871294;75;21514;-89
2022/06/06 02:47:06;;;;;;;2.50;1.02;;;19.40;99.90;;;;;;1893667;75;21056;-88
2022/06/06 02:49:57;;;;;;;1.15;0.90;;;19.40;99.90;;;;;;1898240;75;21089;-88
2022/06/06 02:52:49;;;;;;;1.67;1.00;;;19.40;99.90;;;;;;1872880;75;21063;-88
2022/06/06 02:55:42;;;;;;;4.80;1.22;;;19.40;99.90;;;;;;1897650;75;21487;-88
2022/06/06 02:58:33;;;;;;;3.05;0.95;;;19.40;99.90;;;;;;1880709;75;21157;-88
2022/06/06 03:01:25;;;;;;;1.20;0.90;;;19.20;99.90;;;;;;1892933;75;21076;-88
2022/06/06 03:04:16;;;;;;;1.67;1.02;;;19.10;99.90;;;;;;1873422;75;21059;-87
2022/06/06 03:07:13;;;;;;;2.85;1.02;;;19.10;99.90;;;;;;1882555;75;21482;-88
2022/06/06 03:10:10;;;;;;;2.77;1.20;;;19.10;99.90;;;;;;1877226;75;21118;-87
2022/06/06 03:13:08;;;;;;;1.98;1.00;;;18.90;99.90;;;;;;1873099;75;21505;-87
2022/06/06 03:22:36;;;;;;;3.08;1.00;;;18.80;99.90;;;;;;1939176;72;22082;-87
2022/06/06 03:25:49;;;;;;;2.83;1.42;;;18.90;99.90;;;;;;1881225;75;21067;-88
2022/06/06 03:29:12;;;;;;;3.90;2.40;;;18.90;99.90;;;;;;1890467;75;21157;-88
2022/06/06 03:32:08;;;;;;;3.42;2.00;;;19.00;99.90;;;;;;1878837;75;21067;-88
2022/06/06 03:38:02;;;;;;;5.97;4.70;;;19.10;99.90;;;;;;1926277;72;22348;-87
2022/06/06 03:41:15;;;;;;;5.97;4.50;;;19.10;99.90;;;;;;1885699;75;21151;-88
2022/06/06 03:44:31;;;;;;;4.00;3.40;;;19.10;99.90;;;;;;1884601;75;21160;-88
2022/06/06 03:47:27;;;;;;;2.50;2.30;;;19.10;99.90;;;;;;1880930;75;21177;-88
2022/06/06 03:53:35;;;;;;;2.72;1.50;;;19.10;99.90;;;;;;1951415;72;22143;-87
2022/06/06 03:56:53;;;;;;;3.65;1.37;;;19.00;99.90;;;;;;1949733;73;21135;-89
2022/06/06 04:00:06;;;;;;;2.15;1.12;;;19.00;99.90;;;;;;1917286;75;21508;-88
2022/06/06 04:03:02;;;;;;;2.80;1.32;;;18.90;99.90;;;;;;1917476;74;21470;-87
2022/06/06 04:06:12;;;;;;;1.50;1.10;;;19.00;99.90;;;;;;1918125;73;21068;-87
2022/06/06 04:09:05;;;;;;;1.98;1.17;;;19.00;99.90;;;;;;1929083;73;21084;-87
2022/06/06 04:12:00;;;;;;;3.17;1.27;;;19.00;99.90;;;;;;1934944;73;21163;-86
2022/06/06 04:17:43;;;;;;;2.20;1.40;;;19.00;99.90;;;;;;1955884;72;22194;-88
2022/06/06 04:23:50;;;;;;;2.00;1.30;;;19.00;99.90;;;;;;1942240;72;22599;-88
2022/06/06 04:27:05;;;;;;;2.22;1.12;;;18.90;99.90;;;;;;1941504;73;21185;-88
2022/06/06 04:30:19;;;;;;;1.40;1.07;;;18.90;99.90;;;;;;1922205;73;21148;-88
2022/06/06 04:33:20;;;;;;;1.35;1.20;;;19.00;99.90;;;;;;1939778;73;21193;-89
2022/06/06 04:39:13;;;;;;;3.95;1.10;;;19.00;99.90;;;;;;1941120;72;22280;-87
2022/06/06 04:42:26;;;;;;;3.33;1.32;;;19.00;99.90;;;;;;1895232;75;21059;-87
2022/06/06 04:48:19;;;;;;;2.55;1.37;;;19.00;99.90;;;;;;1941198;72;22142;-87
2022/06/06 04:51:32;;;;;;;1.57;1.30;;;19.10;99.90;;;;;;1898791;75;21062;-88
2022/06/06 04:54:45;;;;;;;3.37;1.30;;;19.20;99.90;;;;;;1917605;75;21086;-88
2022/06/06 04:57:38;;;;;;;2.95;1.40;;;19.00;99.90;;;;;;1912626;75;21220;-87
2022/06/06 05:00:49;;;;;;;2.25;1.30;;;18.80;99.90;;;;;;1915576;75;21131;-87
2022/06/06 05:03:40;;;;;;;1.77;1.35;;;18.70;99.90;;;;;;1893961;75;21125;-87
2022/06/06 05:06:42;;;;;;;2.05;1.30;;;18.80;99.90;;;;;;1915137;75;21083;-87
2022/06/06 05:09:49;;;;;;;3.10;1.40;;;18.80;99.90;;;;;;1917617;75;21571;-87
2022/06/06 05:12:51;;;;;;;3.42;1.52;;;18.70;99.90;;;;;;1924690;74;21211;-87
2022/06/06 05:15:49;;;;;;;3.27;1.60;;;18.60;99.90;;;;;;1925412;74;21233;-87
2022/06/06 05:19:03;;;;;;;4.20;1.90;;;18.70;99.90;;;;;;1935519;74;21156;-88
2022/06/06 05:28:02;;;;;;;3.08;1.60;;;18.50;99.90;;;;;;1925832;72;22255;-82
2022/06/06 05:31:17;;;;;;;2.33;1.57;;;18.50;99.90;;;;;;1892396;75;21051;-82
2022/06/06 05:34:30;;;;;;;3.83;1.40;;;18.60;99.90;;;;;;1898171;75;21063;-83
2022/06/06 05:37:31;;;;;;;2.42;1.77;;;18.70;99.90;;;;;;1896625;75;21208;-82
2022/06/06 05:43:29;;;;;;;2.42;1.80;;;18.60;99.90;;;;;;1920773;72;22145;-81
2022/06/06 05:46:44;;;;;;;2.67;1.65;;;18.70;99.90;;;;;;1902165;75;21120;-81
2022/06/06 05:52:49;;;;;;;3.37;1.72;;;18.80;99.90;;;;;;1942042;72;22150;-81
2022/06/06 05:56:21;;;;;;;2.52;1.55;;;18.90;99.90;;;;;;1895819;75;21181;-82
2022/06/06 06:05:56;;;;;;;5.70;1.77;;;19.10;99.90;;;;;;1932819;72;22176;-82
2022/06/06 06:12:16;;;;;;;3.10;2.10;;;19.20;99.90;;;;;;1936179;72;22071;-82
2022/06/06 06:15:32;;;;;;;3.37;1.92;;;19.30;99.90;;;;;;1897577;75;21042;-82
2022/06/06 06:18:46;;;;;;;2.90;1.72;;;19.50;99.90;;;;;;1898457;75;21535;-82
2022/06/06 06:21:41;;;;;;;5.17;1.85;;;19.50;99.90;;;;;;1906587;75;21104;-82
2022/06/06 06:24:53;;;;;;;2.33;1.72;;;19.70;99.90;;;;;;1900145;75;21075;-83
2022/06/06 06:27:46;;;;;;;3.60;1.72;;;19.70;99.90;;;;;;1904344;75;21156;-82
2022/06/06 06:33:32;;;;;;;4.75;1.62;;;19.90;99.90;;;;;;1932504;72;22263;-81
2022/06/06 06:36:46;;;;;;;2.62;1.80;;;20.00;99.90;;;;;;1894263;75;21086;-81
2022/06/06 06:43:01;;;;;;;2.40;2.20;;;20.20;99.90;;;;;;1940410;72;22158;-82
2022/06/06 06:46:15;;;;;;;3.12;2.17;;;20.20;99.90;;;;;;1907350;75;21185;-82
2022/06/06 06:49:32;;;;;;;3.75;1.95;;;20.40;99.90;;;;;;1899269;74;21553;-82
2022/06/06 06:52:33;;;;;;;2.70;1.90;;;20.50;99.90;;;;;;1893765;75;21534;-83
2022/06/06 06:55:47;;;;;;;3.80;2.10;;;20.50;99.90;;;;;;1900822;75;21871;-82
2022/06/06 06:58:54;;;;;;;2.52;1.90;;;20.60;99.90;;;;;;1916052;74;21157;-82
2022/06/06 07:08:36;;;;;;;2.22;1.90;;;20.90;99.90;;;;;;1886786;75;21548;-82
2022/06/06 07:11:56;;;;;;;4.33;1.92;;;20.90;99.90;;;;;;1896765;73;21139;-82
2022/06/06 07:17:47;;;;;;;4.42;2.10;;;20.90;99.90;;;;;;1925044;72;22195;-82
2022/06/06 07:20:58;;;;;;;4.30;2.75;;;20.90;99.90;;;;;;1905073;75;21721;-82
2022/06/06 07:24:11;;;;;;;3.87;2.42;;;21.00;99.90;;;;;;1890969;75;21707;-82
2022/06/06 07:27:04;;;;;;;3.27;2.10;;;21.10;99.90;;;;;;1889445;75;21055;-82
2022/06/06 07:33:00;;;;;;;4.85;1.80;;;21.10;99.90;;;;;;1948031;72;22105;-82
2022/06/06 07:36:16;;;;;;;3.80;1.90;;;21.10;99.90;;;;;;1920324;73;21087;-83
2022/06/06 07:39:32;;;;;;;1.85;1.60;;;21.40;99.90;;;;;;1917844;73;21046;-80
2022/06/06 07:42:33;;;;;;;3.15;1.90;;;21.50;99.90;;;;;;1918496;73;21122;-80
2022/06/06 07:45:47;;;;;;;2.35;1.77;;;21.50;99.90;;;;;;1918232;73;21557;-80
2022/06/06 07:48:48;;;;;;;2.77;1.52;;;21.40;99.90;;;;;;1917481;73;21091;-80
2022/06/06 07:54:30;;;;;;;3.02;1.85;;;21.40;99.90;;;;;;1942944;72;22139;-80
2022/06/06 07:57:44;;;;;;;3.75;1.87;;;21.50;99.90;;;;;;1946896;73;21086;-80
2022/06/06 08:00:59;;;;;;;7.35;1.80;;;21.60;99.90;;;;;;1917535;73;21044;-80
2022/06/06 08:03:53;;;;;;;2.37;1.77;;;21.60;99.90;;;;;;1944255;73;21161;-80
2022/06/06 08:09:56;;;;;;;3.20;2.22;;;21.60;99.90;;;;;;1940617;72;22214;-80
2022/06/06 08:13:27;;;;;;;5.80;2.15;;;21.70;99.90;;;;;;1890944;73;21136;-81
2022/06/06 08:19:48;;;;;;;4.05;2.02;;;21.60;99.90;;;;;;1962905;72;22178;-80
2022/06/06 08:22:58;;;;;;;;;;;21.60;99.90;;;;;;1932143;73;21490;-80
2022/06/06 08:25:50;;;;;;;6.42;2.22;;;21.70;99.90;;;;;;1923173;73;20211;-80
2022/06/06 08:28:44;;;;;;;4.22;1.90;;;21.70;99.90;;;;;;1926380;73;21070;-80
2022/06/06 08:31:36;;;;;;;3.85;1.87;;;21.70;99.90;;;;;;1928826;73;21546;-80
2022/06/06 08:34:27;;;;;;;2.20;2.00;;;21.70;99.90;;;;;;1939508;73;21107;-80
2022/06/06 08:37:59;;;;;;;3.67;1.80;;;21.80;99.90;;;;;;1918127;73;21070;-80
2022/06/06 08:41:58;;;;;;;1.80;1.67;;;21.80;99.90;;;;;;1935732;73;21040;-80
2022/06/06 08:44:56;;;;;;;2.98;1.62;;;21.90;99.90;;;;;;1936053;73;21168;-80
2022/06/06 08:48:02;;;;;;;2.40;1.57;;;22.00;99.90;;;;;;1917631;73;21210;-80
2022/06/06 08:54:26;;;;;;;2.42;1.72;;;22.30;99.90;;;;;;1941961;72;22185;-80
2022/06/06 08:57:55;;;;;;;2.05;1.72;;;22.30;99.90;;;;;;1912837;73;21051;-80
2022/06/06 09:01:11;;;;;;;2.90;1.55;;;22.40;99.90;;;;;;1914755;74;21066;-80
2022/06/06 09:04:38;;;;;;;3.47;2.00;;;22.60;99.90;;;;;;1923460;74;21210;-80
2022/06/06 09:08:10;;;;;;;3.10;1.55;;;22.60;99.90;;;;;;1916761;75;21129;-80
2022/06/06 09:11:36;;;;;;;2.45;2.00;;;22.80;99.90;;;;;;1931831;74;21638;-80
2022/06/06 09:14:55;;;;;;;2.25;1.72;;;22.90;99.90;;;;;;1917773;74;21055;-82
2022/06/06 09:18:23;;;;;;;4.25;1.62;;;22.90;99.90;;;;;;1906056;73;21213;-82
2022/06/06 09:21:47;;;;;;;1.70;1.45;;;23.00;99.90;;;;;;1896992;75;21111;-82
2022/06/06 09:28:12;;;;;;;2.15;1.87;;;23.30;99.90;;;;;;1932988;72;22188;-81
2022/06/06 09:32:11;;;;;;;2.58;1.40;;;23.40;99.90;;;;;;1907071;75;21225;-82
2022/06/06 09:38:27;;;;;;;3.95;1.60;;;23.60;99.90;;;;;;1930873;72;22794;-91
2022/06/06 09:41:40;;;;;;;2.45;1.65;;;23.60;99.90;;;;;;1895564;74;21066;-82
2022/06/06 09:48:32;;;;;;;3.45;1.47;;;23.90;99.90;;;;;;1936141;72;22115;-82
2022/06/06 09:52:12;;;;;;;2.65;1.50;;;24.00;99.90;;;;;;1907045;73;21132;-83
2022/06/06 10:03:12;;;;;;;2.55;1.75;;;24.20;99.90;;;;;;1918608;72;27985;-83
2022/06/06 10:06:56;;;;;;;1.60;1.30;;;24.50;99.90;;;;;;1898269;75;21184;-83
2022/06/06 10:13:10;;;;;;;1.52;1.20;;;24.50;99.90;;;;;;1925354;72;22213;-84
2022/06/06 10:16:49;;;;;;;2.72;1.40;;;24.60;99.90;;;;;;1893121;75;21090;-84
2022/06/06 10:20:09;;;;;;;2.27;1.12;;;24.80;99.90;;;;;;1905902;75;21146;-85
2022/06/06 10:23:15;;;;;;;1.60;1.00;;;24.90;99.90;;;;;;1913568;75;21059;-84
2022/06/06 10:30:12;;;;;;;2.20;1.17;;;25.00;99.90;;;;;;1946822;72;22179;-84
2022/06/06 10:33:49;;;;;;;2.05;1.30;;;25.10;99.90;;;;;;1918132;73;21028;-85
2022/06/06 10:40:13;;;;;;;2.75;1.00;;;25.50;99.90;;;;;;1940411;72;22174;-85
2022/06/06 10:46:18;;;;;;;1.22;1.12;;;25.40;99.90;;;;;;1943476;72;23002;-81
2022/06/06 10:49:36;;;;;;;1.20;1.07;;;25.50;99.90;;;;;;1931279;73;21105;-81
2022/06/06 10:59:39;;;;;;;1.75;1.00;;;25.60;99.90;;;;;;1943996;72;22119;-81
2022/06/06 11:03:05;;;;;;;2.30;1.10;;;25.60;99.90;;;;;;1930843;73;21066;-80
2022/06/06 11:06:47;;;;;;;2.02;1.20;;;25.60;99.90;;;;;;1928150;73;21051;-78
2022/06/06 11:10:03;;;;;;;4.05;1.72;;;25.80;99.90;;;;;;1918143;73;21068;-78
2022/06/06 11:13:22;;;;;;;2.92;1.20;;;25.80;99.90;;;;;;1916794;73;21137;-79
2022/06/06 11:16:54;;;;;;;4.08;1.25;;;25.80;99.90;;;;;;1920886;73;21160;-78
2022/06/06 11:20:34;;;;;;;2.47;1.20;;;25.80;99.90;;;;;;1766567;80;21205;-79
2022/06/06 11:23:31;;;;;;;2.05;1.30;;;25.90;99.90;;;;;;1931014;73;21180;-79
2022/06/06 11:26:35;;;;;;;2.27;1.50;;;25.80;99.90;;;;;;1924306;73;21149;-79
2022/06/06 11:29:47;;;;;;;1.92;1.10;;;25.80;99.90;;;;;;1924711;73;21188;-80
2022/06/06 11:33:11;;;;;;;1.55;1.25;;;26.00;99.90;;;;;;1915740;74;21116;-79
2022/06/06 11:39:05;;;;;;;2.15;1.20;;;26.30;99.90;;;;;;1918380;72;22147;-80
2022/06/06 11:42:28;;;;;;;2.55;1.30;;;26.60;99.90;;;;;;1891577;75;21160;-78
2022/06/06 11:46:25;;;;;;;2.75;1.30;;;26.70;99.90;;;;;;1908405;74;21072;-79
2022/06/06 11:49:49;;;;;;;1.67;1.00;;;26.60;99.90;;;;;;1900543;73;21066;-80
2022/06/06 11:53:37;;;;;;;1.20;1.10;;;26.80;99.90;;;;;;1910512;75;21572;-78
2022/06/06 11:56:41;;;;;;;3.02;1.20;;;26.90;99.90;;;;;;1903567;75;21091;-77
2022/06/06 11:59:44;;;;;;;2.10;1.30;;;27.00;99.90;;;;;;1869774;75;21621;-78
2022/06/06 12:03:07;;;;;;;4.15;1.20;;;27.00;99.90;;;;;;1922636;73;21185;-78
2022/06/06 12:06:42;;;;;;;3.02;1.40;;;27.20;99.90;;;;;;1908377;73;21598;-77
2022/06/06 12:09:46;;;;;;;1.20;1.00;;;27.40;99.90;;;;;;1903074;75;21066;-79
2022/06/06 12:16:11;;;;;;;3.00;1.10;;;27.30;99.90;;;;;;1956625;72;22111;-77
2022/06/06 12:19:59;;;;;;;3.10;1.17;;;27.10;99.90;;;;;;1902013;75;21091;-77
2022/06/06 12:26:07;;;;;;;1.12;1.02;;;27.10;99.90;;;;;;1941269;72;22522;-77
2022/06/06 12:29:55;;;;;;;1.80;1.12;;;27.20;99.90;;;;;;1910125;74;21081;-77
2022/06/06 12:33:09;;;;;;;1.57;1.00;;;27.40;99.90;;;;;;1870597;75;21152;-77
2022/06/06 12:36:03;;;;;;;2.30;1.05;;;27.30;99.90;;;;;;1918495;74;21095;-77
2022/06/06 12:39:20;;;;;;;1.65;1.27;;;27.30;99.90;;;;;;1904776;75;21475;-78
2022/06/06 12:42:24;;;;;;;2.30;1.12;;;27.30;99.90;;;;;;1906758;75;21155;-78
2022/06/06 12:48:52;;;;;;;1.42;0.90;;;27.30;99.90;;;;;;1927723;72;22150;-78
2022/06/06 13:04:52;;;;;;;2.05;0.90;;;27.50;99.90;;;;;;1896799;75;21251;-87
2022/06/06 13:08:10;;;;;;;1.60;1.00;;;27.50;99.90;;;;;;1905834;74;21206;-79
2022/06/06 13:14:38;;;;;;;2.55;1.30;;;27.50;99.90;;;;;;1922250;72;22330;-81
2022/06/06 13:17:57;;;;;;;0.95;0.82;;;27.60;99.90;;;;;;1891195;75;21171;-80
2022/06/06 13:23:57;;;;;;;2.10;1.27;;;27.90;99.90;;;;;;1949467;72;22232;-80
2022/06/06 13:30:24;;;;;;;1.02;0.90;;;28.00;99.90;;;;;;1943895;72;22177;-81
2022/06/06 13:33:43;;;;;;;1.10;1.00;;;28.00;99.90;;;;;;1912046;73;21090;-81
2022/06/06 13:37:07;;;;;;;1.67;1.10;;;28.10;99.90;;;;;;1896032;75;21078;-81
2022/06/06 13:43:13;;;;;;;1.00;0.80;;;28.40;99.90;;;;;;1947436;72;22228;-81
2022/06/06 13:46:30;;;;;;;1.75;1.17;;;28.50;99.10;;;;;;1901032;75;21150;-80
2022/06/06 13:49:52;;;;;;;0.70;0.70;;;28.70;98.20;;;;;;1896090;75;21055;-80
2022/06/06 13:52:54;;;;;;;1.15;0.80;;;29.00;96.00;;;;;;1905066;75;21133;-81
2022/06/06 13:59:12;;;;;;;0.93;0.60;;;29.30;91.60;;;;;;1945125;72;22094;-81
2022/06/06 14:05:26;;;;;;;1.02;0.80;;;29.60;90.00;;;;;;1940898;72;22231;-81
2022/06/06 14:08:55;;;;;;;2.47;0.70;;;29.70;90.20;;;;;;1897667;75;21078;-81
2022/06/06 14:12:28;;;;;;;2.05;0.70;;;29.60;88.10;;;;;;1903460;75;21143;-81
2022/06/06 14:18:01;;;;;;;0.68;0.50;;;29.90;84.90;;;;;;1925990;72;22215;-81
2022/06/06 14:21:13;;;;;;;0.70;0.40;;;30.10;80.30;;;;;;1885654;75;21023;-81
2022/06/06 14:24:25;;;;;;;1.35;0.42;;;30.40;77.20;;;;;;1880085;75;21059;-81
2022/06/06 14:27:20;;;;;;;1.30;0.50;;;30.80;72.70;;;;;;1869166;75;21100;-81
2022/06/06 14:33:24;;;;;;;0.68;0.50;;;31.60;69.50;;;;;;1941220;72;22177;-81
2022/06/06 14:36:34;;;;;;;1.15;0.40;;;32.10;69.10;;;;;;1905967;74;21096;-81
2022/06/06 14:39:49;;;;;;;0.75;0.40;;;32.40;66.20;;;;;;1903379;75;21154;-81
2022/06/06 14:42:44;;;;;;;0.62;0.42;;;32.70;63.10;;;;;;1901741;75;21283;-81
2022/06/06 14:46:00;;;;;;;1.37;0.60;;;32.80;62.50;;;;;;1885587;75;22487;-81
2022/06/06 14:48:55;;;;;;;0.60;0.60;;;32.70;59.90;;;;;;1881405;75;21102;-81
2022/06/06 14:51:48;;;;;;;0.82;0.60;;;32.70;61.00;;;;;;1906966;75;21091;-81
2022/06/06 14:54:41;;;;;;;0.70;0.60;;;32.60;60.50;;;;;;1886832;75;21117;-81
2022/06/06 14:57:33;;;;;;;1.02;0.70;;;32.90;62.40;;;;;;1903418;75;21561;-81
2022/06/06 15:03:15;;;;;;;1.22;0.60;;;32.20;63.80;;;;;;1954811;72;22286;-81
2022/06/06 15:06:28;;;;;;;1.30;0.60;;;31.80;61.80;;;;;;1931741;73;21051;-81
2022/06/06 15:09:43;;;;;;;1.40;0.60;;;31.50;60.80;;;;;;1922793;73;21229;-81
2022/06/06 15:15:15;;;;;;;0.95;0.90;;;31.10;60.80;;;;;;1946843;72;22103;-81
2022/06/06 15:18:28;;;;;;;1.25;0.60;;;31.00;61.30;;;;;;1909787;75;21145;-81
2022/06/06 15:21:41;;;;;;;0.68;0.50;;;31.20;61.20;;;;;;1911855;75;21144;-80
2022/06/06 15:24:36;;;;;;;0.72;0.50;;;31.60;59.40;;;;;;1911750;74;21208;-80
2022/06/06 15:27:54;;;;;;;0.95;0.47;;;33.00;58.10;;;;;;1915728;74;21103;-80
2022/06/06 15:30:51;;;;;;;0.40;0.40;;;33.60;56.10;;;;;;1915827;73;21138;-81
2022/06/06 15:33:49;;;;;;;1.45;0.70;;;34.30;54.00;;;;;;1909261;73;21191;-81
2022/06/06 15:36:43;;;;;;;0.53;0.50;;;34.00;54.60;;;;;;1893984;75;21109;-80
2022/06/06 15:39:40;;;;;;;0.90;0.42;;;34.10;54.50;;;;;;1898723;75;21129;-80
2022/06/06 15:42:37;;;;;;;0.72;0.40;;;34.60;52.90;;;;;;1901014;75;21131;-81
2022/06/06 15:48:15;;;;;;;0.60;0.50;;;33.70;53.40;;;;;;1928742;72;22244;-81
2022/06/06 15:51:35;;;;;;;3.12;0.62;;;33.60;53.70;;;;;;1912167;73;21032;-80
2022/06/06 15:54:50;;;;;;;0.90;0.50;;;33.40;52.70;;;;;;1887877;75;21102;-81
2022/06/06 15:57:44;;;;;;;0.95;0.60;;;32.30;54.70;;;;;;1903102;75;21132;-81
2022/06/06 16:00:59;;;;;;;1.07;0.40;;;31.40;56.40;;;;;;1905403;73;21147;-81
2022/06/06 16:04:15;;;;;;;1.02;0.60;;;31.00;57.50;;;;;;1909141;73;21039;-81
2022/06/06 16:07:12;;;;;;;0.50;0.50;;;30.70;58.60;;;;;;1900521;75;21091;-81
2022/06/06 16:12:57;;;;;;;1.00;0.80;;;30.30;62.70;;;;;;1947838;72;22165;-81
2022/06/06 16:18:54;;;;;;;1.10;0.70;;;30.20;62.50;;;;;;1943882;72;22655;-80
2022/06/06 16:24:52;;;;;;;3.60;0.80;;;29.80;62.80;;;;;;1932516;72;22245;-81
2022/06/06 16:28:05;;;;;;;2.35;0.80;;;29.60;64.20;;;;;;1896088;75;21079;-81
2022/06/06 16:31:25;;;;;;;1.60;0.55;;;29.40;64.90;;;;;;1895880;73;21031;-81
2022/06/06 16:34:30;;;;;;;1.15;0.60;;;29.40;65.50;;;;;;1898041;75;21093;-80
2022/06/06 16:38:04;;;;;;;0.75;0.70;;;29.30;65.80;;;;;;1900706;73;21046;-82
2022/06/06 16:48:12;;;;;;;1.22;0.60;;;29.00;68.70;;;;;;1879356;75;21063;-81
2022/06/06 16:51:29;;;;;;;0.88;0.60;;;28.80;68.80;;;;;;1875520;75;21096;-84
2022/06/06 16:54:38;;;;;;;1.25;0.70;;;28.80;69.60;;;;;;1891727;75;21489;-85
2022/06/06 16:57:33;;;;;;;2.08;1.00;;;28.40;71.40;;;;;;1894007;73;21119;-87
2022/06/06 17:00:27;;;;;;;0.82;0.80;;;28.30;72.50;;;;;;1874103;75;21091;-83
2022/06/06 17:03:27;;;;;;;1.95;0.80;;;28.20;73.50;;;;;;1921846;73;21157;-82
2022/06/06 17:12:36;;;;;;;2.30;0.75;;;27.90;76.90;;;;;;1923526;72;22208;-82
2022/06/06 17:18:30;;;;;;;1.12;0.80;;;27.90;78.70;;;;;;1945042;72;22179;-82
2022/06/06 17:21:48;;;;;;;3.35;0.88;;;27.90;80.60;;;;;;1890267;75;21211;-82
2022/06/06 17:25:00;;;;;;;0.72;0.70;;;27.90;81.70;;;;;;1893990;75;21446;-82
2022/06/06 17:28:00;;;;;;;0.98;0.72;;;27.90;83.00;;;;;;1914769;74;21047;-82
2022/06/06 17:31:22;;;;;;;1.95;1.00;;;27.90;83.70;;;;;;1920486;73;21086;-83
2022/06/06 17:34:19;;;;;;;2.22;1.00;;;27.90;84.90;;;;;;1901037;74;21594;-82
2022/06/06 17:37:30;;;;;;;2.97;1.20;;;27.70;86.00;;;;;;1914202;74;21597;-82
2022/06/06 17:43:32;;;;;;;1.55;0.80;;;27.90;87.30;;;;;;1941326;72;22171;-82
2022/06/06 17:46:45;;;;;;;0.93;0.70;;;27.80;87.90;;;;;;1919090;73;21096;-83
2022/06/06 17:50:03;;;;;;;1.35;1.02;;;27.90;88.40;;;;;;1922759;73;21513;-82
2022/06/06 17:56:14;;;;;;;2.33;1.00;;;28.40;87.90;;;;;;1936806;72;22247;-82
2022/06/06 17:59:35;;;;;;;2.90;1.00;;;28.60;87.50;;;;;;1879832;75;21154;-82
2022/06/06 18:03:15;;;;;;;1.55;0.90;;;28.30;88.50;;;;;;1900389;73;21177;-82
2022/06/06 18:06:25;;;;;;;1.32;0.90;;;28.10;90.00;;;;;;1873791;75;21168;-81
2022/06/06 18:10:03;;;;;;;1.00;0.90;;;28.00;90.30;;;;;;1875708;75;21100;-82
2022/06/06 18:13:32;;;;;;;1.50;0.90;;;28.00;90.60;;;;;;1884319;75;21111;-81
2022/06/06 18:16:27;;;;;;;3.33;1.00;;;28.10;91.00;;;;;;1894305;75;21215;-82
2022/06/06 18:19:23;;;;;;;0.88;0.88;;;27.90;91.20;;;;;;1872997;75;21178;-81
2022/06/06 18:24:57;;;;;;;1.82;1.00;;;27.50;91.80;;;;;;1964895;72;22146;-82
2022/06/06 18:28:09;;;;;;;1.72;1.10;;;27.40;91.80;;;;;;1924761;73;21124;-82
2022/06/06 18:31:22;;;;;;;2.77;1.20;;;27.20;92.80;;;;;;1930283;73;21078;-82
2022/06/06 18:34:19;;;;;;;1.65;1.10;;;27.10;93.20;;;;;;1925040;73;21110;-83
2022/06/06 18:37:32;;;;;;;3.27;1.10;;;27.00;93.70;;;;;;1947391;73;21066;-83
2022/06/06 18:40:30;;;;;;;2.42;1.10;;;26.90;94.10;;;;;;1917641;73;21546;-82
2022/06/06 18:43:28;;;;;;;1.30;1.10;;;26.80;94.80;;;;;;1914532;73;21103;-82
2022/06/06 18:46:22;;;;;;;2.52;0.98;;;26.60;95.40;;;;;;1923318;73;21058;-82
2022/06/06 18:49:20;;;;;;;1.27;1.10;;;26.50;95.90;;;;;;1916007;73;21577;-82
2022/06/06 18:55:05;;;;;;;1.15;0.98;;;26.30;97.00;;;;;;1931052;72;22233;-82
2022/06/06 18:58:19;;;;;;;1.92;1.10;;;26.30;97.40;;;;;;1887520;75;21070;-83
2022/06/06 19:01:32;;;;;;;1.77;0.90;;;26.30;97.80;;;;;;1895311;73;21160;-82
2022/06/06 19:04:26;;;;;;;1.30;1.00;;;26.20;98.30;;;;;;1867693;76;21055;-82
2022/06/06 19:07:40;;;;;;;2.02;1.15;;;26.00;99.10;;;;;;1889846;75;21171;-82
2022/06/06 19:10:35;;;;;;;1.67;0.85;;;25.90;99.70;;;;;;1936300;73;21108;-82
2022/06/06 19:13:29;;;;;;;2.27;1.10;;;25.90;99.90;;;;;;1897841;75;21490;-82
2022/06/06 19:19:00;;;;;;;2.85;0.93;;;25.70;99.90;;;;;;1931152;72;22144;-82
2022/06/06 19:24:52;;;;;;;2.35;1.05;;;25.50;99.90;;;;;;1948667;72;22323;-82
2022/06/06 19:28:04;;;;;;;1.77;1.20;;;25.50;99.90;;;;;;1889808;75;21565;-82
2022/06/06 19:31:25;;;;;;;1.10;1.00;;;25.40;99.90;;;;;;1893597;73;21128;-81
2022/06/06 19:34:21;;;;;;;1.30;1.05;;;25.30;99.90;;;;;;1891066;75;21172;-82
2022/06/06 19:37:35;;;;;;;1.55;0.78;;;25.30;99.90;;;;;;1888076;75;21046;-83
2022/06/06 19:40:31;;;;;;;4.33;1.05;;;25.40;99.90;;;;;;1903200;75;21150;-83
2022/06/06 19:43:22;;;;;;;1.82;1.10;;;25.30;99.90;;;;;;1897705;75;21189;-83
2022/06/06 19:46:17;;;;;;;0.82;0.80;;;25.30;99.90;;;;;;1911988;75;21089;-83
2022/06/06 19:49:13;;;;;;;2.62;1.10;;;25.20;99.90;;;;;;1901747;75;21051;-82
2022/06/06 19:52:07;;;;;;;2.30;1.07;;;25.20;99.90;;;;;;1903725;75;21039;-83
2022/06/06 19:55:02;;;;;;;3.12;1.20;;;25.20;99.90;;;;;;1893140;75;21122;-82
2022/06/06 19:57:54;;;;;;;1.60;0.98;;;25.20;99.90;;;;;;1890236;75;21566;-82
2022/06/06 20:00:46;;;;;;;2.62;1.02;;;25.20;99.90;;;;;;1910772;73;21169;-82
2022/06/06 20:03:41;;;;;;;1.20;1.10;;;25.20;99.90;;;;;;1908835;73;21231;-83
2022/06/06 20:09:16;;;;;;;2.62;1.22;;;25.10;99.90;;;;;;1949001;72;22159;-82
2022/06/06 20:12:30;;;;;;;1.30;0.98;;;25.10;99.90;;;;;;1913256;74;21098;-82
2022/06/06 20:15:39;;;;;;;1.50;1.27;;;25.10;99.90;;;;;;1918121;74;21087;-83
2022/06/06 20:21:22;;;;;;;1.25;1.12;;;25.10;99.90;;;;;;1931731;72;22242;-82
2022/06/06 20:24:35;;;;;;;1.50;1.10;;;25.10;99.90;;;;;;1887172;75;21114;-83